WetterOnline ( https://www.wetteronline.de )

Wetter aktuell Kiel

Aktuelles Wetter: Kiel/Holtenau (27m)

6-stündlich | Neueste Meldungen
Ortszeit Temperatur Wetter
Di, 22.10. 20:00 11.6° C leicht bewölkt
Di, 22.10. 14:00 12.9° C bedeckt
Di, 22.10. 8:00 11.1° C bedeckt
Di, 22.10. 2:00 11.4° C wolkenlos
Mo, 21.10. 20:00 13.4° C leicht bewölkt
Mo, 21.10. 14:00 12.5° C bedeckt
Mo, 21.10. 8:00 11.6° C Sprühregen
Mo, 21.10. 2:00 11.2° C leichter Regen
Ortszeit Temperatur Wetter
Mi, 23.10. 0:00 10.2° C fast wolkenlos
Di, 22.10. 23:50 10.2° C fast wolkenlos
Di, 22.10. 23:40 10.3° C wolkenlos
Di, 22.10. 23:30 10.6° C wolkenlos
Di, 22.10. 23:20 10.6° C wolkenlos
Di, 22.10. 23:10 10.6° C wolkenlos
Di, 22.10. 23:00 11.0° C wolkenlos
Di, 22.10. 22:30 11.5° C leicht bewölkt
Di, 22.10. 22:00 11.9° C bedeckt
Di, 22.10. 21:30 11.9° C bedeckt
Di, 22.10. 21:00 11.8° C bedeckt
Ortszeit Relative Feuchte Sichtweite
Di, 22.10. 20:00 92% 11 km
Di, 22.10. 14:00 83% 16 km
Di, 22.10. 8:00 87% 30 km
Di, 22.10. 2:00 89% 29 km
Mo, 21.10. 20:00 96% 5.0 km
Mo, 21.10. 14:00 92% 12 km
Mo, 21.10. 8:00 92% 30 km
Mo, 21.10. 2:00 89% 40 km
Ortszeit Relative Feuchte Sichtweite
Mi, 23.10. 0:00 97% 3.8 km
Di, 22.10. 23:50 97% -
Di, 22.10. 23:40 97% -
Di, 22.10. 23:30 95% 5.0 km
Di, 22.10. 23:20 95% -
Di, 22.10. 23:10 95% -
Di, 22.10. 23:00 94% 7 km
Di, 22.10. 22:30 93% 7 km
Di, 22.10. 22:00 93% 7 km
Di, 22.10. 21:30 92% 7 km
Di, 22.10. 21:00 93% 7 km
Ortszeit Niederschlagsmenge Niederschlagsart
Di, 22.10. 20:00 0.0 l/m2 in 12 Std. -
Di, 22.10. 14:00 0.0 l/m2 in 6 Std. -
Di, 22.10. 8:00 0.0 l/m2 in 12 Std. -
Di, 22.10. 2:00 0.0 l/m2 in 6 Std. -
Mo, 21.10. 20:00 0.1 l/m2 in 12 Std. Sprühregen
Mo, 21.10. 14:00 0.1 l/m2 in 6 Std. Regen
Mo, 21.10. 8:00 2 l/m2 in 12 Std. Regen
Mo, 21.10. 2:00 0.2 l/m2 in 6 Std. Regen
Ortszeit Niederschlagsmenge Niederschlagsart
Mi, 23.10. 0:00 0.0 l/m2 in 1 Std. -
Di, 22.10. 23:50 keine Meldung -
Di, 22.10. 23:40 keine Meldung -
Di, 22.10. 23:30 0.0 l/m2 in 1 Std. -
Di, 22.10. 23:20 keine Meldung -
Di, 22.10. 23:10 keine Meldung -
Di, 22.10. 23:00 0.0 l/m2 in 1 Std. Sprühregen
Di, 22.10. 22:30 0.0 l/m2 in 1 Std. -
Di, 22.10. 22:00 0.1 l/m2 in 1 Std. Sprühregen
Di, 22.10. 21:30 0.1 l/m2 in 1 Std. Schnee
Di, 22.10. 21:00 0.0 l/m2 in 1 Std. -
Ortszeit Stärke Spitze Richtung
km/h Bft. km/h Grad Sektor
Di, 22.10. 20:00 11 2 32 210° SW
Di, 22.10. 14:00 18 3 40 240° SW
Di, 22.10. 8:00 11 2 20 210° SW
Di, 22.10. 2:00 14 3 22 220° SW
Mo, 21.10. 20:00 7 2 14 210° SW
Mo, 21.10. 14:00 13 3 37 150° SO
Mo, 21.10. 8:00 22 4 36 60° NO
Mo, 21.10. 2:00 9 2 13 60° NO
Ortszeit Stärke Spitze Richtung
km/h Bft. km/h Grad Sektor
Mi, 23.10. 0:00 7 2 18 220° SW
Di, 22.10. 23:50 7 2 - 220° SW
Di, 22.10. 23:40 7 2 - 210° SW
Di, 22.10. 23:30 7 2 18 210° SW
Di, 22.10. 23:20 7 2 - 210° SW
Di, 22.10. 23:10 7 2 - 220° SW
Di, 22.10. 23:00 9 2 19 220° SW
Di, 22.10. 22:30 11 2 18 220° SW
Di, 22.10. 22:00 11 2 18 220° SW
Di, 22.10. 21:30 11 2 19 230° SW
Di, 22.10. 21:00 11 2 22 220° SW
Ortszeit Untergrenze Bedeckung Gattung
total tief tief mittel hoch
Di, 22.10. 20:00 660 m 3/8 3/8 - - -
Di, 22.10. 14:00 450 m 8/8 8/8 - - -
Di, 22.10. 8:00 1200 m 8/8 8/8 - - -
Di, 22.10. 2:00 - 0/8 0/8 - - -
Mo, 21.10. 20:00 330 m 3/8 3/8 - - -
Mo, 21.10. 14:00 180 m 8/8 8/8 - - -
Mo, 21.10. 8:00 360 m 8/8 8/8 - - -
Mo, 21.10. 2:00 1500 m 7/8 8/8 - - -
Ortszeit Bedeckungsgrad in Achtel und Wolkenuntergrenze
Mi, 23.10. 0:00 1(1080m)
Di, 22.10. 23:50 1(1080m)
Di, 22.10. 23:40 keine Wolken
Di, 22.10. 23:30 keine Wolken
Di, 22.10. 23:20 keine Wolken
Di, 22.10. 23:10 keine Wolken
Di, 22.10. 23:00 keine Wolken
Di, 22.10. 22:30 2(450m) 3(810m)
Di, 22.10. 22:00 2(270m) 7(540m) 8(690m)
Di, 22.10. 21:30 2(420m) 3(780m) 8(990m)
Di, 22.10. 21:00 2(360m) 3(570m) 8(1200m)
Ortszeit Luftdruck NN (hPa) Tendenz (hPa in 3 Std.)
Di, 22.10. 20:00 1023 + 1,0
Di, 22.10. 14:00 1022 + 0,6
Di, 22.10. 8:00 1020 + 0,4
Di, 22.10. 2:00 1020 + 0,7
Mo, 21.10. 20:00 1019 + 1,7
Mo, 21.10. 14:00 1017 + 0,4
Mo, 21.10. 8:00 1016 + 0,7
Mo, 21.10. 2:00 1015 + 1,2
Ortszeit Luftdruck NN (hPa) Tendenz (hPa in 3 Std.)
Mi, 23.10. 0:00 1022 + 0,2
Di, 22.10. 23:50 1022 keine Meldung
Di, 22.10. 23:40 1023 keine Meldung
Di, 22.10. 23:30 1023 + 0,3
Di, 22.10. 23:20 1023 keine Meldung
Di, 22.10. 23:10 1023 keine Meldung
Di, 22.10. 23:00 1023 + 0,1
Di, 22.10. 22:30 1022 - 0,1
Di, 22.10. 22:00 1022 + 0,3
Di, 22.10. 21:30 1022 + 0,5
Di, 22.10. 21:00 1022 + 0,6
Ortszeit Schneehöhe (cm)
Di, 22.10. 20:00 0
Di, 22.10. 14:00 0
Di, 22.10. 8:00 0
Di, 22.10. 2:00 0
Mo, 21.10. 20:00 0
Mo, 21.10. 14:00 0
Mo, 21.10. 8:00 0
Mo, 21.10. 2:00 0
Ortszeit Schneehöhe (cm)
Mi, 23.10. 0:00 0
Di, 22.10. 23:50 0
Di, 22.10. 23:40 0
Di, 22.10. 23:30 0
Di, 22.10. 23:20 0
Di, 22.10. 23:10 0
Di, 22.10. 23:00 0
Di, 22.10. 22:30 0
Di, 22.10. 22:00 0
Di, 22.10. 21:30 0
Di, 22.10. 21:00 0
Link zu dieser Seite / Seite empfehlen

Das Wetter in ...